createdAt,value
2022-12-03T00:01:38.696Z,18.30
2022-12-03T00:04:05.142Z,20.00
2022-12-03T00:06:34.484Z,14.70
2022-12-03T00:09:01.117Z,12.70
2022-12-03T00:11:27.502Z,18.40
2022-12-03T00:13:53.882Z,18.10
2022-12-03T00:16:20.335Z,17.30
2022-12-03T00:18:46.862Z,17.20
2022-12-03T00:24:49.623Z,18.70
2022-12-03T00:27:15.970Z,17.70
2022-12-03T00:29:42.404Z,22.60
2022-12-03T00:32:08.814Z,23.40
2022-12-03T00:34:35.182Z,21.40
2022-12-03T00:37:01.552Z,18.80
2022-12-03T00:39:27.955Z,20.50
2022-12-03T00:41:54.483Z,17.10
2022-12-03T00:44:20.843Z,20.10
2022-12-03T00:46:47.488Z,18.40
2022-12-03T00:49:13.948Z,17.80
2022-12-03T00:51:40.304Z,18.10
2022-12-03T00:54:06.765Z,17.60
2022-12-03T00:56:33.776Z,17.70
2022-12-03T00:59:00.117Z,16.40
2022-12-03T01:01:26.605Z,16.30
2022-12-03T01:03:53.136Z,22.10
2022-12-03T01:06:20.250Z,19.60
2022-12-03T01:08:46.681Z,17.90
2022-12-03T01:11:31.851Z,17.60
2022-12-03T01:13:58.220Z,17.80
2022-12-03T01:16:24.728Z,16.20
2022-12-03T01:18:52.185Z,18.80
2022-12-03T01:21:18.819Z,18.70
2022-12-03T01:23:45.261Z,16.30
2022-12-03T01:26:11.664Z,16.00
2022-12-03T01:28:38.114Z,20.70
2022-12-03T01:31:23.680Z,18.20
2022-12-03T01:33:50.157Z,15.80
2022-12-03T01:36:16.565Z,18.40
2022-12-03T01:38:43.758Z,20.90
2022-12-03T01:41:12.080Z,22.10
2022-12-03T01:43:38.551Z,18.20
2022-12-03T01:46:05.040Z,17.50
2022-12-03T01:48:34.451Z,19.70
2022-12-03T01:51:01.292Z,19.50
2022-12-03T01:53:27.841Z,17.10
2022-12-03T01:55:54.266Z,18.60
2022-12-03T01:58:24.607Z,19.60
2022-12-03T02:00:51.063Z,15.90
2022-12-03T02:03:22.788Z,17.30
2022-12-03T02:05:49.250Z,24.60
2022-12-03T02:08:27.615Z,22.90
2022-12-03T02:10:54.094Z,21.00
2022-12-03T02:13:20.766Z,16.00
2022-12-03T02:15:47.338Z,21.80
2022-12-03T02:18:13.809Z,20.30
2022-12-03T02:20:45.742Z,16.40
2022-12-03T02:23:24.668Z,11.90
2022-12-03T02:25:51.061Z,17.90
2022-12-03T02:28:17.449Z,18.20
2022-12-03T02:30:43.846Z,10.90
2022-12-03T02:33:10.500Z,18.30
2022-12-03T02:35:37.900Z,16.70
2022-12-03T02:38:10.895Z,16.50
2022-12-03T02:40:37.501Z,18.10
2022-12-03T02:43:04.527Z,21.50
2022-12-03T02:45:35.492Z,14.60
2022-12-03T02:48:04.840Z,18.10
2022-12-03T02:50:33.406Z,19.90
2022-12-03T02:53:02.389Z,17.60
2022-12-03T02:55:36.334Z,15.50
2022-12-03T02:58:04.221Z,16.60
2022-12-03T03:00:30.714Z,17.60
2022-12-03T03:02:57.390Z,19.00
2022-12-03T03:05:24.096Z,15.60
2022-12-03T03:07:50.936Z,18.30
2022-12-03T03:10:20.350Z,20.70
2022-12-03T03:12:47.739Z,19.90
2022-12-03T03:15:14.586Z,20.70
2022-12-03T03:17:41.831Z,19.10
2022-12-03T03:20:11.360Z,15.00
2022-12-03T03:22:39.009Z,21.00
2022-12-03T03:25:06.494Z,18.30
2022-12-03T03:27:33.273Z,18.60
2022-12-03T03:30:00.050Z,19.10
2022-12-03T03:32:27.434Z,16.80
2022-12-03T03:34:54.649Z,21.10
2022-12-03T03:37:21.387Z,18.30
2022-12-03T03:39:47.738Z,22.30
2022-12-03T03:42:14.240Z,16.40
2022-12-03T03:44:40.791Z,18.00
2022-12-03T03:47:07.189Z,18.00
2022-12-03T03:49:33.829Z,20.10
2022-12-03T03:52:00.233Z,19.10
2022-12-03T03:54:26.639Z,22.00
2022-12-03T03:56:53.010Z,18.50
2022-12-03T03:59:19.398Z,15.10
2022-12-03T04:01:46.077Z,18.00
2022-12-03T04:04:18.003Z,22.00
2022-12-03T04:06:44.498Z,17.40
2022-12-03T04:09:10.970Z,21.20
2022-12-03T04:11:55.686Z,18.70
2022-12-03T04:14:22.041Z,21.80
2022-12-03T04:16:48.479Z,21.10
2022-12-03T04:19:14.874Z,13.50
2022-12-03T04:25:37.075Z,22.50
2022-12-03T04:28:22.242Z,13.40
2022-12-03T04:30:48.655Z,19.40
2022-12-03T04:33:33.625Z,16.70
2022-12-03T04:36:00.048Z,16.60
2022-12-03T04:38:26.592Z,19.10
2022-12-03T04:41:03.551Z,19.80
2022-12-03T04:43:31.719Z,15.10
2022-12-03T04:45:58.337Z,16.80
2022-12-03T04:48:24.938Z,18.10
2022-12-03T04:50:51.372Z,22.90
2022-12-03T04:53:18.112Z,18.10
2022-12-03T04:55:44.471Z,16.40
2022-12-03T04:58:10.932Z,18.40
2022-12-03T05:00:37.313Z,20.00
2022-12-03T05:03:03.830Z,18.70
2022-12-03T05:05:30.572Z,21.30
2022-12-03T05:07:57.298Z,19.00
2022-12-03T05:10:23.860Z,18.70
2022-12-03T05:12:50.190Z,20.80
2022-12-03T05:15:16.639Z,16.70
2022-12-03T05:17:44.693Z,18.30
2022-12-03T05:20:29.926Z,20.10
2022-12-03T05:22:56.406Z,18.40
2022-12-03T05:25:22.837Z,19.80
2022-12-03T05:27:49.396Z,20.50
2022-12-03T05:30:16.114Z,22.10
2022-12-03T05:32:42.561Z,21.00
2022-12-03T05:35:09.389Z,21.40
2022-12-03T05:37:35.826Z,21.00
2022-12-03T05:40:02.905Z,20.00
2022-12-03T05:42:48.040Z,20.10
2022-12-03T05:45:14.577Z,14.90
2022-12-03T05:47:40.938Z,21.90
2022-12-03T05:50:07.515Z,19.90
2022-12-03T05:52:33.885Z,22.80
2022-12-03T05:55:00.367Z,22.00
2022-12-03T05:57:28.515Z,22.90
2022-12-03T05:59:54.932Z,23.50
2022-12-03T06:02:21.457Z,23.90
2022-12-03T06:04:48.601Z,21.90
2022-12-03T06:07:15.001Z,21.70
2022-12-03T06:09:41.454Z,22.70
2022-12-03T06:12:10.700Z,20.20
2022-12-03T06:14:37.047Z,26.40
2022-12-03T06:17:04.323Z,24.20
2022-12-03T06:19:30.888Z,18.40
2022-12-03T06:21:57.421Z,19.90
2022-12-03T06:24:24.011Z,24.80
2022-12-03T06:26:50.509Z,20.40
2022-12-03T06:29:16.974Z,18.00
2022-12-03T06:31:43.398Z,22.70
2022-12-03T06:34:09.895Z,23.00
2022-12-03T06:36:36.268Z,28.10
2022-12-03T06:39:02.673Z,24.80
2022-12-03T06:41:29.091Z,25.20
2022-12-03T06:43:55.506Z,23.50
2022-12-03T06:46:21.904Z,24.70
2022-12-03T06:48:48.386Z,21.20
2022-12-03T06:51:14.812Z,19.10
2022-12-03T06:53:41.215Z,23.40
2022-12-03T06:56:07.689Z,21.80
2022-12-03T06:58:34.188Z,25.20
2022-12-03T07:01:00.565Z,25.40
2022-12-03T07:03:27.067Z,20.80
2022-12-03T07:05:53.569Z,24.00
2022-12-03T07:08:19.972Z,26.50
2022-12-03T07:10:46.378Z,24.00
2022-12-03T07:13:12.913Z,25.90
2022-12-03T07:15:39.363Z,19.90
2022-12-03T07:18:05.796Z,45.00
2022-12-03T07:20:32.152Z,38.60
2022-12-03T07:22:58.566Z,32.20
2022-12-03T07:25:25.041Z,38.90
2022-12-03T07:27:51.415Z,42.90
2022-12-03T07:30:17.966Z,53.80
2022-12-03T07:32:44.333Z,48.40
2022-12-03T07:35:10.861Z,38.90
2022-12-03T07:37:37.364Z,47.40
2022-12-03T07:40:06.308Z,35.50
2022-12-03T07:42:32.709Z,30.70
2022-12-03T07:44:59.219Z,29.80
2022-12-03T07:47:25.671Z,34.20
2022-12-03T07:49:52.027Z,30.80
2022-12-03T07:52:18.519Z,34.70
2022-12-03T07:54:45.054Z,41.00
2022-12-03T07:57:11.404Z,40.70
2022-12-03T07:59:38.043Z,29.90
2022-12-03T08:02:04.745Z,30.50
2022-12-03T08:04:31.423Z,46.40
2022-12-03T08:06:57.820Z,38.60
2022-12-03T08:09:24.290Z,25.20
2022-12-03T08:11:51.427Z,38.40
2022-12-03T08:14:18.874Z,20.60
2022-12-03T08:16:45.975Z,23.60
2022-12-03T08:19:16.862Z,25.70
2022-12-03T08:21:43.532Z,22.80
2022-12-03T08:24:19.897Z,24.60
2022-12-03T08:26:47.468Z,25.50
2022-12-03T08:29:15.306Z,22.70
2022-12-03T08:31:42.318Z,25.90
2022-12-03T08:34:11.549Z,32.60
2022-12-03T08:36:44.076Z,20.40
2022-12-03T08:39:20.569Z,23.70
2022-12-03T08:42:13.709Z,26.90
2022-12-03T08:44:40.606Z,25.90
2022-12-03T08:47:15.335Z,28.60
2022-12-03T08:53:27.761Z,30.00
2022-12-03T08:55:56.230Z,27.20
2022-12-03T08:58:24.309Z,29.10
2022-12-03T09:01:24.021Z,28.60
2022-12-03T09:03:52.034Z,26.40
2022-12-03T09:06:18.722Z,19.90
2022-12-03T09:08:45.314Z,29.60
2022-12-03T09:11:11.931Z,33.10
2022-12-03T09:13:38.331Z,32.00
2022-12-03T09:16:05.108Z,29.10
2022-12-03T09:18:31.932Z,27.90
2022-12-03T09:21:00.490Z,24.00
2022-12-03T09:23:26.834Z,29.30
2022-12-03T09:25:53.253Z,31.70
2022-12-03T09:28:19.789Z,38.20
2022-12-03T09:30:46.324Z,34.90
2022-12-03T09:33:13.374Z,33.90
2022-12-03T09:35:39.710Z,36.60
2022-12-03T09:38:06.134Z,37.60
2022-12-03T09:40:33.317Z,30.00
2022-12-03T09:43:00.435Z,39.90
2022-12-03T09:45:26.775Z,37.70
2022-12-03T09:47:54.227Z,29.30
2022-12-03T09:50:24.798Z,36.20
2022-12-03T09:52:54.448Z,33.90
2022-12-03T09:55:22.654Z,36.00
2022-12-03T09:57:50.486Z,36.80
2022-12-03T10:00:18.583Z,31.30
2022-12-03T10:02:46.135Z,35.10
2022-12-03T10:05:13.353Z,29.30
2022-12-03T10:07:40.467Z,35.50
2022-12-03T10:10:14.755Z,42.60
2022-12-03T10:12:41.184Z,30.90
2022-12-03T10:15:10.982Z,34.60
2022-12-03T10:17:37.547Z,31.50
2022-12-03T10:20:04.593Z,39.50
2022-12-03T10:22:36.554Z,33.80
2022-12-03T10:25:06.203Z,29.90
2022-12-03T10:30:37.395Z,41.40
2022-12-03T10:33:28.649Z,29.50
2022-12-03T10:35:55.082Z,39.60
2022-12-03T10:38:22.535Z,32.80
2022-12-03T10:40:49.469Z,32.60
2022-12-03T10:43:21.119Z,50.10
2022-12-03T10:45:48.923Z,41.20
2022-12-03T10:48:18.780Z,56.50
2022-12-03T10:50:46.739Z,46.50
2022-12-03T10:53:13.200Z,46.10
2022-12-03T10:55:41.477Z,36.40
2022-12-03T10:58:14.854Z,34.90
2022-12-03T11:00:41.436Z,36.70
2022-12-03T11:03:16.640Z,35.40
2022-12-03T11:05:44.941Z,36.50
2022-12-03T11:08:15.732Z,40.90
2022-12-03T11:11:01.152Z,33.50
2022-12-03T11:13:33.518Z,34.50
2022-12-03T11:16:01.914Z,34.10
2022-12-03T11:18:37.950Z,32.80
2022-12-03T11:21:17.090Z,37.70
2022-12-03T11:23:43.620Z,33.80
2022-12-03T11:26:19.595Z,32.00
2022-12-03T11:28:46.478Z,32.40
2022-12-03T11:31:32.165Z,27.30
2022-12-03T11:34:17.492Z,28.90
2022-12-03T11:37:16.783Z,36.30
2022-12-03T11:39:49.161Z,36.60
2022-12-03T11:42:34.570Z,39.60
2022-12-03T11:45:29.133Z,39.70
2022-12-03T11:47:58.745Z,61.80
2022-12-03T11:50:31.691Z,38.10
2022-12-03T11:53:21.401Z,42.70
2022-12-03T11:55:51.731Z,38.40
2022-12-03T11:58:25.522Z,57.70
2022-12-03T12:03:34.961Z,49.80
2022-12-03T12:08:52.536Z,37.00
2022-12-03T12:11:21.701Z,31.20
2022-12-03T12:13:49.594Z,30.80
2022-12-03T12:16:35.343Z,34.60
2022-12-03T12:19:20.991Z,36.50
2022-12-03T12:22:24.575Z,44.80
2022-12-03T12:24:52.331Z,32.50
2022-12-03T12:27:36.786Z,29.70
2022-12-03T12:30:03.320Z,29.90
2022-12-03T12:32:31.912Z,34.30
2022-12-03T12:35:04.910Z,29.80
2022-12-03T12:37:44.926Z,31.10
2022-12-03T12:40:17.588Z,34.30
2022-12-03T12:42:49.392Z,34.60
2022-12-03T12:45:17.563Z,38.40
2022-12-03T12:47:53.082Z,36.00
2022-12-03T12:50:19.627Z,34.20
2022-12-03T12:52:51.311Z,34.50
2022-12-03T12:55:18.144Z,30.30
2022-12-03T12:57:47.671Z,31.60
2022-12-03T13:00:16.483Z,29.50
2022-12-03T13:03:03.454Z,34.10
2022-12-03T13:05:50.675Z,28.30
2022-12-03T13:08:20.212Z,34.70
2022-12-03T13:10:47.226Z,30.10
2022-12-03T13:13:51.372Z,34.00
2022-12-03T13:16:47.183Z,36.00
2022-12-03T13:19:59.306Z,31.30
2022-12-03T13:22:48.853Z,39.90
2022-12-03T13:25:58.236Z,27.20
2022-12-03T13:28:21.278Z,30.90
2022-12-03T13:30:47.782Z,38.50
2022-12-03T13:33:25.912Z,33.70
2022-12-03T13:35:54.256Z,36.80
2022-12-03T13:38:23.252Z,37.70
2022-12-03T13:41:03.534Z,38.90
2022-12-03T13:43:31.675Z,35.70
2022-12-03T13:46:17.954Z,31.50
2022-12-03T13:49:10.094Z,36.90
2022-12-03T13:51:36.637Z,32.60
2022-12-03T13:54:04.891Z,35.90
2022-12-03T13:56:32.223Z,35.60
2022-12-03T13:59:00.569Z,34.40
2022-12-03T14:01:28.018Z,40.80
2022-12-03T14:04:31.722Z,32.60
2022-12-03T14:07:54.328Z,33.80
2022-12-03T14:10:21.002Z,36.00
2022-12-03T14:12:47.548Z,38.00
2022-12-03T14:15:13.967Z,34.70
2022-12-03T14:17:40.609Z,30.80
2022-12-03T14:20:07.558Z,36.10
2022-12-03T14:22:37.293Z,44.10
2022-12-03T14:25:04.614Z,39.50
2022-12-03T14:27:40.163Z,40.10
2022-12-03T14:30:07.412Z,36.40
2022-12-03T14:32:37.022Z,39.60
2022-12-03T14:35:08.315Z,36.50
2022-12-03T14:37:37.566Z,40.20
2022-12-03T14:40:08.669Z,40.80
2022-12-03T14:42:39.376Z,33.60
2022-12-03T14:45:06.402Z,36.20
2022-12-03T14:47:32.924Z,43.00
2022-12-03T14:49:59.818Z,39.40
2022-12-03T14:52:27.121Z,35.00
2022-12-03T14:54:53.658Z,41.60
2022-12-03T14:57:25.556Z,37.80
2022-12-03T14:59:52.711Z,38.90
2022-12-03T15:02:19.869Z,44.30
2022-12-03T15:05:15.333Z,42.80
2022-12-03T15:07:42.309Z,42.90
2022-12-03T15:10:09.020Z,39.00
2022-12-03T15:12:35.553Z,46.00
2022-12-03T15:15:02.128Z,40.00
2022-12-03T15:18:06.714Z,42.10
2022-12-03T15:20:51.741Z,41.10
2022-12-03T15:23:18.161Z,37.00
2022-12-03T15:25:44.711Z,37.80
2022-12-03T15:28:11.292Z,40.70
2022-12-03T15:30:39.875Z,42.10
2022-12-03T15:33:09.178Z,38.20
2022-12-03T15:35:43.606Z,39.50
2022-12-03T15:44:01.156Z,40.60
2022-12-03T15:46:46.697Z,39.10
2022-12-03T15:49:13.380Z,42.70
2022-12-03T15:57:09.196Z,38.90
2022-12-03T15:59:35.657Z,43.10
2022-12-03T16:02:13.902Z,41.20
2022-12-03T16:04:49.980Z,54.60
2022-12-03T16:07:16.473Z,52.50
2022-12-03T16:09:42.806Z,45.00
2022-12-03T16:12:09.240Z,45.50
2022-12-03T16:14:36.782Z,49.20
2022-12-03T16:17:29.803Z,46.60
2022-12-03T16:19:58.953Z,44.90
2022-12-03T16:22:25.415Z,44.70
2022-12-03T16:24:54.889Z,53.40
2022-12-03T16:27:25.906Z,49.40
2022-12-03T16:29:56.211Z,54.00
2022-12-03T16:32:24.534Z,51.10
2022-12-03T16:34:52.906Z,45.50
2022-12-03T16:37:20.960Z,42.50
2022-12-03T16:42:33.487Z,45.90
2022-12-03T16:45:22.469Z,31.50
2022-12-03T16:50:42.673Z,40.80
2022-12-03T16:53:09.121Z,50.80
2022-12-03T16:55:35.661Z,45.70
2022-12-03T16:58:02.143Z,52.60
2022-12-03T17:00:28.656Z,52.40
2022-12-03T17:02:55.395Z,57.50
2022-12-03T17:05:21.997Z,55.90
2022-12-03T17:07:48.631Z,48.00
2022-12-03T17:10:15.423Z,44.70
2022-12-03T17:13:08.399Z,50.70
2022-12-03T17:15:28.511Z,47.10
2022-12-03T17:17:55.144Z,46.20
2022-12-03T17:20:21.684Z,49.80
2022-12-03T17:22:48.193Z,46.00
2022-12-03T17:25:14.684Z,49.50
2022-12-03T17:27:45.053Z,45.70
2022-12-03T17:30:12.646Z,45.40
2022-12-03T17:32:39.109Z,41.20
2022-12-03T17:35:05.913Z,49.80
2022-12-03T17:37:32.341Z,42.40
2022-12-03T17:39:58.773Z,46.60
2022-12-03T17:42:25.526Z,52.60
2022-12-03T17:44:52.058Z,47.30
2022-12-03T17:47:18.516Z,51.40
2022-12-03T17:49:45.005Z,42.60
2022-12-03T17:52:11.406Z,54.40
2022-12-03T17:55:01.786Z,53.90
2022-12-03T17:57:24.405Z,50.20
2022-12-03T17:59:51.228Z,42.80
2022-12-03T18:02:17.907Z,50.30
2022-12-03T18:04:44.523Z,44.40
2022-12-03T18:07:10.880Z,42.70
2022-12-03T18:09:37.381Z,42.20
2022-12-03T18:12:04.005Z,40.90
2022-12-03T18:14:30.451Z,45.40
2022-12-03T18:16:56.815Z,43.50
2022-12-03T18:19:25.465Z,44.60
2022-12-03T18:21:52.934Z,45.40
2022-12-03T18:24:20.104Z,51.90
2022-12-03T18:26:46.543Z,47.20
2022-12-03T18:29:13.021Z,46.90
2022-12-03T18:31:39.749Z,49.70
2022-12-03T18:34:06.194Z,44.60
2022-12-03T18:36:33.981Z,50.90
2022-12-03T18:39:00.781Z,57.20
2022-12-03T18:41:27.362Z,61.40
2022-12-03T18:43:53.790Z,80.10
2022-12-03T18:49:08.059Z,52.20
2022-12-03T18:51:34.436Z,228.30
2022-12-03T18:54:00.926Z,87.20
2022-12-03T18:56:27.461Z,100.60
2022-12-03T18:58:54.042Z,116.70
2022-12-03T19:01:21.471Z,83.10
2022-12-03T19:03:49.012Z,61.10
2022-12-03T19:06:18.793Z,64.30
2022-12-03T19:08:46.215Z,58.30
2022-12-03T19:11:12.742Z,63.70
2022-12-03T19:13:39.991Z,69.90
2022-12-03T19:16:07.518Z,56.40
2022-12-03T19:18:34.575Z,53.70
2022-12-03T19:21:05.312Z,58.10
2022-12-03T19:23:31.664Z,47.40
2022-12-03T19:25:59.228Z,51.90
2022-12-03T19:28:26.226Z,57.50
2022-12-03T19:30:57.150Z,59.10
2022-12-03T19:33:28.251Z,54.80
2022-12-03T19:35:55.831Z,56.90
2022-12-03T19:38:22.769Z,56.00
2022-12-03T19:40:58.442Z,53.00
2022-12-03T19:43:24.976Z,50.60
2022-12-03T19:45:51.485Z,52.40
2022-12-03T19:48:18.084Z,60.30
2022-12-03T19:51:02.881Z,44.40
2022-12-03T19:53:34.605Z,46.40
2022-12-03T19:56:02.203Z,68.30
2022-12-03T19:58:29.221Z,52.70
2022-12-03T20:00:55.648Z,56.00
2022-12-03T20:03:22.099Z,54.90
2022-12-03T20:05:49.856Z,66.00
2022-12-03T20:08:16.327Z,54.30
2022-12-03T20:10:42.741Z,64.60
2022-12-03T20:13:09.182Z,54.50
2022-12-03T20:15:36.424Z,57.00
2022-12-03T20:18:02.859Z,49.80
2022-12-03T20:20:29.414Z,52.60
2022-12-03T20:22:55.802Z,48.10
2022-12-03T20:25:22.178Z,49.10
2022-12-03T20:27:48.566Z,56.70
2022-12-03T20:30:15.130Z,50.20
2022-12-03T20:32:45.317Z,51.50
2022-12-03T20:35:12.074Z,51.80
2022-12-03T20:37:38.553Z,62.60
2022-12-03T20:40:05.261Z,50.30
2022-12-03T20:42:31.614Z,57.90
2022-12-03T20:44:58.108Z,50.00
2022-12-03T20:47:24.558Z,55.00
2022-12-03T20:49:50.977Z,50.20
2022-12-03T20:52:17.378Z,52.10
2022-12-03T20:54:43.868Z,46.70
2022-12-03T20:57:10.313Z,47.60
2022-12-03T20:59:36.730Z,51.90
2022-12-03T21:02:03.281Z,43.30
2022-12-03T21:04:29.795Z,48.90
2022-12-03T21:06:56.202Z,51.20
2022-12-03T21:09:22.599Z,40.60
2022-12-03T21:11:49.074Z,50.20
2022-12-03T21:14:15.427Z,53.40
2022-12-03T21:17:07.245Z,42.20
2022-12-03T21:19:32.023Z,52.10
2022-12-03T21:21:58.383Z,51.50
2022-12-03T21:24:24.790Z,51.60
2022-12-03T21:26:51.199Z,56.60
2022-12-03T21:29:17.704Z,51.30
2022-12-03T21:31:44.107Z,45.90
2022-12-03T21:34:10.502Z,56.00
2022-12-03T21:36:36.935Z,44.90
2022-12-03T21:39:04.144Z,49.60
2022-12-03T21:41:31.364Z,50.30
2022-12-03T21:43:57.977Z,59.80
2022-12-03T21:47:10.160Z,67.40
2022-12-03T21:49:10.813Z,65.40
2022-12-03T21:51:37.220Z,58.90
2022-12-03T21:54:03.624Z,46.50
2022-12-03T21:56:31.356Z,53.40
2022-12-03T21:58:57.803Z,56.50
2022-12-03T22:01:24.469Z,45.40
2022-12-03T22:03:51.883Z,49.10
2022-12-03T22:06:18.697Z,50.70
2022-12-03T22:08:45.608Z,51.40
2022-12-03T22:11:16.406Z,54.70
2022-12-03T22:13:43.076Z,49.70
2022-12-03T22:16:12.340Z,52.90
2022-12-03T22:18:39.294Z,53.60
2022-12-03T22:21:07.051Z,46.40
2022-12-03T22:23:33.624Z,52.40
2022-12-03T22:26:01.463Z,46.00
2022-12-03T22:28:28.062Z,47.60
2022-12-03T22:30:54.503Z,59.30
2022-12-03T22:33:21.409Z,65.10
2022-12-03T22:35:57.633Z,51.80
2022-12-03T22:38:24.268Z,46.40
2022-12-03T22:40:50.701Z,48.00
2022-12-03T22:43:17.444Z,51.50
2022-12-03T22:45:43.978Z,58.70
2022-12-03T22:48:10.516Z,44.50
2022-12-03T22:50:40.646Z,48.60
2022-12-03T22:53:07.065Z,46.00
2022-12-03T22:55:33.506Z,62.90
2022-12-03T22:57:59.895Z,49.60
2022-12-03T23:00:28.078Z,52.00
2022-12-03T23:02:54.476Z,55.20
2022-12-03T23:05:20.880Z,49.40
2022-12-03T23:07:47.359Z,51.70
2022-12-03T23:10:13.838Z,67.70
2022-12-03T23:12:40.322Z,53.20
2022-12-03T23:15:07.220Z,44.90
2022-12-03T23:17:33.620Z,46.70
2022-12-03T23:20:00.060Z,43.80
2022-12-03T23:22:26.519Z,50.10
2022-12-03T23:24:53.010Z,62.90
2022-12-03T23:27:19.413Z,46.80
2022-12-03T23:29:45.772Z,51.80
2022-12-03T23:32:12.166Z,49.60
2022-12-03T23:34:38.628Z,58.00
2022-12-03T23:37:05.052Z,47.30
2022-12-03T23:39:31.387Z,63.70
2022-12-03T23:41:57.817Z,49.70
2022-12-03T23:44:24.311Z,53.40
2022-12-03T23:46:50.703Z,55.80
2022-12-03T23:49:17.070Z,49.00
2022-12-03T23:51:43.490Z,49.70
2022-12-03T23:54:11.472Z,37.10
2022-12-03T23:56:38.865Z,48.50
2022-12-03T23:59:05.297Z,49.30
